EDT,Max TemperatureF,Mean TemperatureF,Min TemperatureF,Max Dew PointF,MeanDew PointF,Min DewpointF,Max Humidity, Mean Humidity, Min Humidity, Max Sea Level PressureIn, Mean Sea Level PressureIn, Min Sea Level PressureIn, Max VisibilityMiles, Mean VisibilityMiles, Min VisibilityMiles, Max Wind SpeedMPH, Mean Wind SpeedMPH, Max Gust SpeedMPH,PrecipitationIn, CloudCover, Events, WindDirDegrees
2013-3-1,48,39,30,31,26,24,82,59,41,29.92,29.88,29.85,10,10,10,12,4,16,0.00,4,,291
2013-3-2,46,36,27,26,22,17,85,58,37,29.93,29.88,29.82,10,10,10,14,3,20,0.00,4,,301
2013-3-3,46,36,27,18,16,14,66,48,33,29.98,29.92,29.85,10,10,10,15,6,21,0.00,2,,302
2013-3-4,50,37,24,18,14,10,65,40,20,30.12,30.06,29.99,10,10,10,13,5,24,0.00,0,,290
2013-3-5,46,40,34,43,38,22,97,86,42,30.08,29.88,29.56,10,3,0,8,1,,0.23,7,Fog-Rain,76
2013-3-6,46,41,36,42,31,24,93,69,44,30.04,29.71,29.52,10,9,2,20,11,37,0.02,7,Rain,301
2013-3-7,50,42,34,28,26,22,73,55,41,30.24,30.15,30.05,10,10,10,12,8,21,0.00,2,,308
2013-3-8,55,44,33,25,22,20,64,45,26,30.30,30.23,30.16,10,10,10,15,8,25,0.00,0,,311
2013-3-9,63,50,37,30,25,23,67,44,22,30.35,30.29,30.24,10,10,10,7,5,,0.00,0,,345
2013-3-10,66,50,33,31,25,18,82,44,17,30.32,30.26,30.21,10,10,10,7,1,,0.00,0,,110
2013-3-11,68,52,39,51,40,21,76,60,33,30.23,30.09,29.93,10,10,10,9,3,17,0.00,4,,130
2013-3-12,69,60,48,58,53,28,93,78,43,29.96,29.82,29.77,10,8,1,14,6,21,0.62,6,Rain,274
2013-3-13,55,44,34,31,24,16,82,46,25,30.14,30.03,29.96,10,10,10,14,7,25,0.00,2,,298
2013-3-14,54,42,30,18,15,13,52,38,22,30.25,30.17,30.11,10,10,10,14,7,22,0.00,0,,293
2013-3-15,62,45,28,32,25,18,69,43,28,30.18,30.05,29.90,10,10,10,7,3,18,0.00,0,,280
2013-3-16,79,64,50,51,42,33,65,47,29,29.86,29.78,29.65,10,10,10,10,3,21,0.00,2,Rain,242
2013-3-17,59,48,39,51,43,36,93,78,59,30.18,30.02,29.83,10,8,2,13,7,23,0.00,6,,49
2013-3-18,42,39,37,39,37,35,96,92,87,30.21,30.09,29.84,10,3,1,10,7,17,0.31,8,Rain-Thunderstorm,48
2013-3-19,66,52,39,43,32,7,97,66,16,30.03,29.88,29.83,10,7,1,15,5,22,0.00,5,,288
2013-3-20,55,47,37,24,13,6,57,28,18,30.11,29.97,29.80,10,10,10,10,5,,0.00,2,,288
2013-3-21,45,38,30,32,16,8,76,43,27,29.99,29.83,29.75,10,10,10,14,7,24,0.00,2,Rain,306
2013-3-22,52,38,24,19,12,9,58,38,19,30.09,30.02,29.97,10,10,10,10,5,20,0.00,0,,296
2013-3-23,55,46,36,31,24,17,73,47,31,30.06,29.99,29.91,10,10,10,5,1,,0.00,5,,330
2013-3-24,42,38,35,37,34,28,93,86,62,29.92,29.70,29.58,10,5,1,16,6,24,0.60,7,Rain,40
2013-3-25,48,40,35,34,30,20,93,73,35,29.82,29.61,29.56,10,9,2,17,4,31,0.00,7,,287
2013-3-26,48,39,32,26,24,21,70,51,41,30.12,29.95,29.83,10,10,10,12,6,18,0.00,5,,289
2013-3-27,51,42,34,25,22,17,70,48,28,30.23,30.17,30.12,10,10,10,17,9,28,0.00,0,,290
2013-3-28,55,44,32,24,21,20,66,44,25,30.30,30.23,30.16,10,10,10,15,7,24,0.00,0,,293
2013-3-29,59,44,30,28,24,20,76,46,24,30.33,30.26,30.18,10,10,10,10,3,18,0.00,1,,281
2013-3-30,66,52,39,42,32,22,77,47,24,30.25,30.16,30.09,10,10,10,6,2,,0.00,4,,200
2013-3-31,68,57,48,54,50,42,93,81,59,30.09,29.91,29.81,10,7,1,8,3,20,0.58,7,Rain,197